createdAt,value
2018-01-10T00:00:40.056Z,7.40
2018-01-10T00:03:08.323Z,7.40
2018-01-10T00:05:37.353Z,7.40
2018-01-10T00:08:05.604Z,7.40
2018-01-10T00:10:33.932Z,7.40
2018-01-10T00:13:02.180Z,7.50
2018-01-10T00:15:30.460Z,7.40
2018-01-10T00:17:58.704Z,7.50
2018-01-10T00:20:26.968Z,7.50
2018-01-10T00:22:55.996Z,7.50
2018-01-10T00:25:24.256Z,7.50
2018-01-10T00:27:52.512Z,7.50
2018-01-10T00:30:21.540Z,7.60
2018-01-10T00:32:49.788Z,7.50
2018-01-10T00:35:18.814Z,7.60
2018-01-10T00:37:47.067Z,7.60
2018-01-10T00:40:15.349Z,7.60
2018-01-10T00:42:43.600Z,7.60
2018-01-10T00:45:12.642Z,7.60
2018-01-10T00:47:40.904Z,7.60
2018-01-10T00:50:09.512Z,7.60
2018-01-10T00:52:37.732Z,7.60
2018-01-10T00:55:06.772Z,7.50
2018-01-10T00:57:35.033Z,7.60
2018-01-10T01:00:03.305Z,7.50
2018-01-10T01:02:31.548Z,7.50
2018-01-10T01:05:00.584Z,7.50
2018-01-10T01:07:28.839Z,7.60
2018-01-10T01:09:57.120Z,7.60
2018-01-10T01:12:25.376Z,7.60
2018-01-10T01:14:53.621Z,7.60
2018-01-10T01:17:21.940Z,7.60
2018-01-10T01:19:50.161Z,7.50
2018-01-10T01:22:18.430Z,7.50
2018-01-10T01:24:46.688Z,7.50
2018-01-10T01:27:14.958Z,7.50
2018-01-10T01:29:43.216Z,7.50
2018-01-10T01:32:12.252Z,7.50
2018-01-10T01:34:40.505Z,7.40
2018-01-10T01:37:08.768Z,7.50
2018-01-10T01:39:37.789Z,7.40
2018-01-10T01:42:06.056Z,7.40
2018-01-10T01:44:34.314Z,7.40
2018-01-10T01:47:03.353Z,7.50
2018-01-10T01:49:31.592Z,7.50
2018-01-10T01:52:00.631Z,7.40
2018-01-10T01:54:28.891Z,7.40
2018-01-10T01:56:57.163Z,7.40
2018-01-10T01:59:25.416Z,7.40
2018-01-10T02:01:53.701Z,7.50
2018-01-10T02:04:21.944Z,7.40
2018-01-10T02:06:50.977Z,7.50
2018-01-10T02:09:19.236Z,7.50
2018-01-10T02:11:48.268Z,7.50
2018-01-10T02:14:16.511Z,7.40
2018-01-10T02:16:44.782Z,7.50
2018-01-10T02:19:13.788Z,7.40
2018-01-10T02:21:42.069Z,7.40
2018-01-10T02:24:10.324Z,7.40
2018-01-10T02:26:39.367Z,7.40
2018-01-10T02:29:07.613Z,7.40
2018-01-10T02:31:35.885Z,7.40
2018-01-10T02:34:04.136Z,7.40
2018-01-10T02:36:33.177Z,7.30
2018-01-10T02:39:02.423Z,7.30
2018-01-10T02:41:30.686Z,7.30
2018-01-10T02:43:58.948Z,7.30
2018-01-10T02:46:27.226Z,7.30
2018-01-10T02:48:55.476Z,7.30
2018-01-10T02:51:23.750Z,7.30
2018-01-10T02:53:51.997Z,7.30
2018-01-10T02:56:21.032Z,7.40
2018-01-10T02:58:49.323Z,7.30
2018-01-10T03:01:17.606Z,7.30
2018-01-10T03:03:46.625Z,7.30
2018-01-10T03:06:15.670Z,7.30
2018-01-10T03:08:43.917Z,7.30
2018-01-10T03:11:12.940Z,7.30
2018-01-10T03:13:41.192Z,7.40
2018-01-10T03:16:10.215Z,7.30
2018-01-10T03:18:38.470Z,7.30
2018-01-10T03:21:06.739Z,7.40
2018-01-10T03:23:34.993Z,7.40
2018-01-10T03:26:03.226Z,7.40
2018-01-10T03:28:31.494Z,7.40
2018-01-10T03:30:59.745Z,7.40
2018-01-10T03:33:28.010Z,7.40
2018-01-10T03:35:56.302Z,7.40
2018-01-10T03:38:24.568Z,7.50
2018-01-10T03:40:52.844Z,7.50
2018-01-10T03:43:21.115Z,7.50
2018-01-10T03:45:50.127Z,7.50
2018-01-10T03:48:18.424Z,7.50
2018-01-10T03:50:46.650Z,7.50
2018-01-10T03:53:15.684Z,7.60
2018-01-10T03:55:43.936Z,7.60
2018-01-10T03:58:13.778Z,7.60
2018-01-10T04:00:42.032Z,7.60
2018-01-10T04:03:10.296Z,7.50
2018-01-10T04:05:40.274Z,7.60
2018-01-10T04:08:08.539Z,7.60
2018-01-10T04:10:36.808Z,7.50
2018-01-10T04:13:05.081Z,7.60
2018-01-10T04:15:33.348Z,7.60
2018-01-10T04:18:01.607Z,7.60
2018-01-10T04:20:29.869Z,7.70
2018-01-10T04:22:58.931Z,7.70
2018-01-10T04:25:27.189Z,7.70
2018-01-10T04:27:55.444Z,7.70
2018-01-10T04:30:23.700Z,7.80
2018-01-10T04:32:52.731Z,7.70
2018-01-10T04:35:20.991Z,7.70
2018-01-10T04:37:49.248Z,7.70
2018-01-10T04:40:17.524Z,7.80
2018-01-10T04:42:45.797Z,7.80
2018-01-10T04:45:14.829Z,7.80
2018-01-10T04:47:43.075Z,7.70
2018-01-10T04:50:11.455Z,7.80
2018-01-10T04:52:39.736Z,7.80
2018-01-10T04:55:07.988Z,7.80
2018-01-10T04:57:37.010Z,7.80
2018-01-10T05:00:05.284Z,7.80
2018-01-10T05:02:33.548Z,7.80
2018-01-10T05:05:02.579Z,7.80
2018-01-10T05:07:30.848Z,7.80
2018-01-10T05:09:59.116Z,7.80
2018-01-10T05:12:27.380Z,7.80
2018-01-10T05:14:55.648Z,7.90
2018-01-10T05:17:24.656Z,7.90
2018-01-10T05:19:52.924Z,7.90
2018-01-10T05:22:21.211Z,7.90
2018-01-10T05:24:50.224Z,7.90
2018-01-10T05:27:18.481Z,7.90
2018-01-10T05:29:46.748Z,7.90
2018-01-10T05:32:15.008Z,7.90
2018-01-10T05:34:44.044Z,7.90
2018-01-10T05:37:12.291Z,7.90
2018-01-10T05:39:40.560Z,7.90
2018-01-10T05:42:09.588Z,7.90
2018-01-10T05:44:37.848Z,7.90
2018-01-10T05:47:06.123Z,7.90
2018-01-10T05:49:34.375Z,7.90
2018-01-10T05:52:03.416Z,7.90
2018-01-10T05:54:31.709Z,7.90
2018-01-10T05:56:59.966Z,7.90
2018-01-10T05:59:28.225Z,7.90
2018-01-10T06:01:56.485Z,7.90
2018-01-10T06:04:25.497Z,7.90
2018-01-10T06:06:53.799Z,7.90
2018-01-10T06:09:22.056Z,7.90
2018-01-10T06:11:50.337Z,7.90
2018-01-10T06:14:18.604Z,7.90
2018-01-10T06:16:48.224Z,7.90
2018-01-10T06:19:16.487Z,7.80
2018-01-10T06:21:45.513Z,7.80
2018-01-10T06:24:13.760Z,7.80
2018-01-10T06:26:42.037Z,7.80
2018-01-10T06:29:10.303Z,7.80
2018-01-10T06:31:38.572Z,7.80
2018-01-10T06:34:06.829Z,7.80
2018-01-10T06:36:35.110Z,7.90
2018-01-10T06:39:03.347Z,7.90
2018-01-10T06:41:31.658Z,7.90
2018-01-10T06:43:59.986Z,7.90
2018-01-10T06:46:28.276Z,7.90
2018-01-10T06:48:56.563Z,7.90
2018-01-10T06:51:24.859Z,7.90
2018-01-10T06:53:53.156Z,7.90
2018-01-10T06:56:22.214Z,7.90
2018-01-10T06:58:50.541Z,7.90
2018-01-10T07:01:18.886Z,7.90
2018-01-10T07:03:47.208Z,7.90
2018-01-10T07:06:15.525Z,7.90
2018-01-10T07:08:47.208Z,7.80
2018-01-10T07:11:16.102Z,7.80
2018-01-10T07:13:44.418Z,7.70
2018-01-10T07:16:12.740Z,7.60
2018-01-10T07:18:41.042Z,7.70
2018-01-10T07:21:09.351Z,7.60
2018-01-10T07:23:37.719Z,7.60
2018-01-10T07:26:05.953Z,7.60
2018-01-10T07:28:34.215Z,7.60
2018-01-10T07:31:02.472Z,7.50
2018-01-10T07:33:30.733Z,7.60
2018-01-10T07:35:58.977Z,7.60
2018-01-10T07:38:28.004Z,7.70
2018-01-10T07:40:56.249Z,7.60
2018-01-10T07:43:25.286Z,7.70
2018-01-10T07:45:53.821Z,7.60
2018-01-10T07:48:22.398Z,7.70
2018-01-10T07:50:50.829Z,7.80
2018-01-10T07:53:19.392Z,7.80
2018-01-10T07:55:47.858Z,7.80
2018-01-10T07:58:17.139Z,7.90
2018-01-10T08:00:45.498Z,7.90
2018-01-10T08:03:14.054Z,7.90
2018-01-10T08:05:42.324Z,7.90
2018-01-10T08:08:10.580Z,7.90
2018-01-10T08:10:39.591Z,7.80
2018-01-10T08:13:07.856Z,7.80
2018-01-10T08:15:36.587Z,7.90
2018-01-10T08:18:09.533Z,7.90
2018-01-10T08:20:37.761Z,7.90
2018-01-10T08:23:06.066Z,7.90
2018-01-10T08:25:35.075Z,8.10
2018-01-10T08:28:03.329Z,8.10
2018-01-10T08:30:31.568Z,8.20
2018-01-10T08:32:59.829Z,8.40
2018-01-10T08:35:28.072Z,8.60
2018-01-10T08:37:57.096Z,9.00
2018-01-10T08:40:25.346Z,9.00
2018-01-10T08:42:54.362Z,9.30
2018-01-10T08:45:22.772Z,9.30
2018-01-10T08:47:51.825Z,9.70
2018-01-10T08:50:20.065Z,9.70
2018-01-10T08:52:48.333Z,10.00
2018-01-10T08:55:16.600Z,10.30
2018-01-10T08:57:44.861Z,10.50
2018-01-10T09:00:13.113Z,10.90
2018-01-10T09:02:41.374Z,11.20
2018-01-10T09:05:09.636Z,11.70
2018-01-10T09:07:37.894Z,11.90
2018-01-10T09:10:06.148Z,12.10
2018-01-10T09:12:34.424Z,12.50
2018-01-10T09:15:02.667Z,12.90
2018-01-10T09:17:30.927Z,13.30
2018-01-10T09:19:59.944Z,13.80
2018-01-10T09:22:28.289Z,13.70
2018-01-10T09:24:56.663Z,14.10
2018-01-10T09:27:25.140Z,14.30
2018-01-10T09:29:53.578Z,14.60
2018-01-10T09:32:22.106Z,15.00
2018-01-10T09:34:50.375Z,15.30
2018-01-10T09:37:18.627Z,15.30
2018-01-10T09:39:46.893Z,15.40
2018-01-10T09:42:15.268Z,15.50
2018-01-10T09:44:43.535Z,15.80
2018-01-10T09:47:11.778Z,16.10
2018-01-10T09:49:40.805Z,16.70
2018-01-10T09:52:09.052Z,16.70
2018-01-10T09:54:38.063Z,17.30
2018-01-10T09:57:06.313Z,17.30
2018-01-10T09:59:35.342Z,17.30
2018-01-10T10:02:03.640Z,17.20
2018-01-10T10:04:31.897Z,17.50
2018-01-10T10:07:00.145Z,17.70
2018-01-10T10:09:29.178Z,18.10
2018-01-10T10:11:57.413Z,18.10
2018-01-10T10:14:26.432Z,18.20
2018-01-10T10:16:54.674Z,18.10
2018-01-10T10:19:23.706Z,17.40
2018-01-10T10:21:51.958Z,17.30
2018-01-10T10:24:20.976Z,16.70
2018-01-10T10:26:49.220Z,16.70
2018-01-10T10:29:18.244Z,16.40
2018-01-10T10:31:46.496Z,16.30
2018-01-10T10:34:15.525Z,16.10
2018-01-10T10:36:43.776Z,16.10
2018-01-10T10:39:12.108Z,16.00
2018-01-10T10:41:40.344Z,16.10
2018-01-10T10:44:08.608Z,16.00
2018-01-10T10:46:36.877Z,15.90
2018-01-10T10:49:05.180Z,15.90
2018-01-10T10:51:33.423Z,16.00
2018-01-10T10:54:02.496Z,16.00
2018-01-10T10:56:30.737Z,15.90
2018-01-10T10:58:59.014Z,15.80
2018-01-10T11:01:27.247Z,15.70
2018-01-10T11:03:56.278Z,15.70
2018-01-10T11:06:24.516Z,15.70
2018-01-10T11:08:53.542Z,15.70
2018-01-10T11:11:21.944Z,15.70
2018-01-10T11:13:50.446Z,15.60
2018-01-10T11:16:18.923Z,15.50
2018-01-10T11:18:47.981Z,15.40
2018-01-10T11:21:16.248Z,15.40
2018-01-10T11:23:44.508Z,15.20
2018-01-10T11:26:12.768Z,15.20
2018-01-10T11:28:42.740Z,15.10
2018-01-10T11:31:10.989Z,15.10
2018-01-10T11:33:39.247Z,15.10
2018-01-10T11:36:10.172Z,15.10
2018-01-10T11:38:40.427Z,15.00
2018-01-10T11:41:08.659Z,15.00
2018-01-10T11:43:36.929Z,14.90
2018-01-10T11:46:05.176Z,15.10
2018-01-10T11:48:33.476Z,14.90
2018-01-10T11:51:01.715Z,14.90
2018-01-10T11:53:30.009Z,15.00
2018-01-10T11:55:58.231Z,15.20
2018-01-10T11:58:27.254Z,15.30
2018-01-10T12:00:55.524Z,15.30
2018-01-10T12:03:23.849Z,15.40
2018-01-10T12:05:52.095Z,15.50
2018-01-10T12:08:20.493Z,15.50
2018-01-10T12:10:48.740Z,15.50
2018-01-10T12:13:17.229Z,15.50
2018-01-10T12:15:47.605Z,15.40
2018-01-10T12:18:16.681Z,15.20
2018-01-10T12:20:44.917Z,15.20
2018-01-10T12:23:13.164Z,14.80
2018-01-10T12:25:42.192Z,14.80
2018-01-10T12:28:10.434Z,14.80
2018-01-10T12:30:39.456Z,14.80
2018-01-10T12:33:07.713Z,14.80
2018-01-10T12:35:36.749Z,14.20
2018-01-10T12:38:04.981Z,14.20
2018-01-10T12:40:33.331Z,14.00
2018-01-10T12:43:01.596Z,13.70
2018-01-10T12:45:29.876Z,13.40
2018-01-10T12:47:58.149Z,13.30
2018-01-10T12:50:26.488Z,13.20
2018-01-10T12:52:55.433Z,12.70
2018-01-10T12:55:23.695Z,12.70
2018-01-10T12:57:51.949Z,12.60
2018-01-10T13:00:20.218Z,12.50
2018-01-10T13:02:48.474Z,12.50
2018-01-10T13:05:16.744Z,12.60
2018-01-10T13:07:45.764Z,12.70
2018-01-10T13:10:14.027Z,12.70
2018-01-10T13:12:42.330Z,12.80
2018-01-10T13:15:10.684Z,12.80
2018-01-10T13:17:38.945Z,12.80
2018-01-10T13:20:07.988Z,12.70
2018-01-10T13:22:36.237Z,12.70
2018-01-10T13:25:04.496Z,12.60
2018-01-10T13:27:32.749Z,12.40
2018-01-10T13:30:01.091Z,12.40
2018-01-10T13:32:29.338Z,12.30
2018-01-10T13:34:57.608Z,12.30
2018-01-10T13:37:25.848Z,12.20
2018-01-10T13:39:54.111Z,12.10
2018-01-10T13:42:22.369Z,12.10
2018-01-10T13:44:50.644Z,12.10
2018-01-10T13:47:18.886Z,12.10
2018-01-10T13:49:47.211Z,12.10
2018-01-10T13:52:15.448Z,12.10
2018-01-10T13:54:43.708Z,12.10
2018-01-10T13:57:11.969Z,12.10
2018-01-10T13:59:41.012Z,12.10
2018-01-10T14:02:09.280Z,12.10
2018-01-10T14:04:37.592Z,12.10
2018-01-10T14:07:05.852Z,12.00
2018-01-10T14:09:34.127Z,11.90
2018-01-10T14:12:02.473Z,11.90
2018-01-10T14:14:31.479Z,11.80
2018-01-10T14:16:59.743Z,11.80
2018-01-10T14:19:28.016Z,11.70
2018-01-10T14:21:56.347Z,11.60
2018-01-10T14:24:24.664Z,11.50
2018-01-10T14:26:53.688Z,11.50
2018-01-10T14:29:21.961Z,11.50
2018-01-10T14:31:50.216Z,11.40
2018-01-10T14:34:18.508Z,11.30
2018-01-10T14:36:46.764Z,11.30
2018-01-10T14:39:15.806Z,11.30
2018-01-10T14:41:44.060Z,11.30
2018-01-10T14:44:12.416Z,11.20
2018-01-10T14:46:40.655Z,11.20
2018-01-10T14:49:08.913Z,11.20
2018-01-10T14:51:37.172Z,11.20
2018-01-10T14:54:05.436Z,11.10
2018-01-10T14:56:33.683Z,11.00
2018-01-10T14:59:02.708Z,10.90
2018-01-10T15:01:30.983Z,10.90
2018-01-10T15:03:59.257Z,10.90
2018-01-10T15:06:27.512Z,10.80
2018-01-10T15:08:56.539Z,10.80
2018-01-10T15:11:24.803Z,10.80
2018-01-10T15:13:53.095Z,10.80
2018-01-10T15:16:21.368Z,10.80
2018-01-10T15:18:49.623Z,10.70
2018-01-10T15:21:17.908Z,10.70
2018-01-10T15:23:46.229Z,10.60
2018-01-10T15:26:14.524Z,10.60
2018-01-10T15:28:42.808Z,10.60
2018-01-10T15:31:11.078Z,10.70
2018-01-10T15:33:39.352Z,10.60
2018-01-10T15:36:07.623Z,10.60
2018-01-10T15:38:35.920Z,10.60
2018-01-10T15:41:04.972Z,10.60
2018-01-10T15:43:33.227Z,10.60
2018-01-10T15:46:01.489Z,10.60
2018-01-10T15:48:29.773Z,10.60
2018-01-10T15:50:58.030Z,10.60
2018-01-10T15:53:27.040Z,10.50
2018-01-10T15:55:55.568Z,10.50
2018-01-10T15:58:23.824Z,10.50
2018-01-10T16:00:52.093Z,10.40
2018-01-10T16:03:20.363Z,10.40
2018-01-10T16:05:48.628Z,10.40
2018-01-10T16:08:16.867Z,10.50
2018-01-10T16:10:45.133Z,10.60
2018-01-10T16:13:14.214Z,10.50
2018-01-10T16:15:42.464Z,10.50
2018-01-10T16:18:10.716Z,10.50
2018-01-10T16:20:39.745Z,10.50
2018-01-10T16:23:07.995Z,10.50
2018-01-10T16:25:36.267Z,10.50
2018-01-10T16:28:04.521Z,10.50
2018-01-10T16:30:33.560Z,10.50
2018-01-10T16:33:01.821Z,10.50
2018-01-10T16:35:30.407Z,10.50
2018-01-10T16:37:59.997Z,10.50
2018-01-10T16:40:28.305Z,10.50
2018-01-10T16:42:56.559Z,10.50
2018-01-10T16:45:24.846Z,10.50
2018-01-10T16:47:53.857Z,10.60
2018-01-10T16:50:22.137Z,10.50
2018-01-10T16:52:50.397Z,10.60
2018-01-10T16:55:18.661Z,10.60
2018-01-10T16:57:46.916Z,10.60
2018-01-10T17:00:15.949Z,10.60
2018-01-10T17:02:44.205Z,10.60
2018-01-10T17:05:13.245Z,10.60
2018-01-10T17:07:41.501Z,10.60
2018-01-10T17:10:09.833Z,10.60
2018-01-10T17:12:38.103Z,10.60
2018-01-10T17:15:06.377Z,10.60
2018-01-10T17:17:34.637Z,10.60
2018-01-10T17:20:02.939Z,10.60
2018-01-10T17:22:31.188Z,10.60
2018-01-10T17:24:59.468Z,10.60
2018-01-10T17:27:27.716Z,10.60
2018-01-10T17:29:56.024Z,10.60
2018-01-10T17:32:24.260Z,10.60
2018-01-10T17:34:52.540Z,10.60
2018-01-10T17:37:20.962Z,10.50
2018-01-10T17:39:49.277Z,10.50
2018-01-10T17:42:18.289Z,10.40
2018-01-10T17:44:46.579Z,10.30
2018-01-10T17:47:14.837Z,10.20
2018-01-10T17:49:43.106Z,10.20
2018-01-10T17:52:11.350Z,10.30
2018-01-10T17:54:39.621Z,10.20
2018-01-10T17:57:07.858Z,10.20
2018-01-10T17:59:36.124Z,10.20
2018-01-10T18:02:04.371Z,10.10
2018-01-10T18:04:33.394Z,10.20
2018-01-10T18:07:01.672Z,10.20
2018-01-10T18:09:29.936Z,10.10
2018-01-10T18:11:58.191Z,10.20
2018-01-10T18:14:27.213Z,10.10
2018-01-10T18:16:55.469Z,10.10
2018-01-10T18:19:24.480Z,10.10
2018-01-10T18:21:52.763Z,10.10
2018-01-10T18:24:21.023Z,10.10
2018-01-10T18:26:49.300Z,10.10
2018-01-10T18:29:17.584Z,10.10
2018-01-10T18:31:45.844Z,10.10
2018-01-10T18:34:15.732Z,10.20
2018-01-10T18:36:44.008Z,10.20
2018-01-10T18:39:12.257Z,10.20
2018-01-10T18:41:40.531Z,10.20
2018-01-10T18:44:08.752Z,10.20
2018-01-10T18:46:37.787Z,10.20
2018-01-10T18:49:06.081Z,10.20
2018-01-10T18:51:34.352Z,10.20
2018-01-10T18:54:02.612Z,10.20
2018-01-10T18:56:30.883Z,10.00
2018-01-10T18:58:59.211Z,10.00
2018-01-10T19:01:27.468Z,10.00
2018-01-10T19:03:55.725Z,10.00
2018-01-10T19:06:23.994Z,10.00
2018-01-10T19:08:52.242Z,10.00
2018-01-10T19:11:21.267Z,9.80
2018-01-10T19:13:49.523Z,9.80
2018-01-10T19:16:18.565Z,9.80
2018-01-10T19:18:46.798Z,9.80
2018-01-10T19:21:15.056Z,9.80
2018-01-10T19:23:44.074Z,9.80
2018-01-10T19:26:12.336Z,9.80
2018-01-10T19:28:41.484Z,9.70
2018-01-10T19:31:09.740Z,9.70
2018-01-10T19:33:37.984Z,9.70
2018-01-10T19:36:07.007Z,9.60
2018-01-10T19:38:35.248Z,9.60
2018-01-10T19:41:04.292Z,9.60
2018-01-10T19:43:32.540Z,9.60
2018-01-10T19:46:00.781Z,9.60
2018-01-10T19:48:29.020Z,9.60
2018-01-10T19:50:57.268Z,9.60
2018-01-10T19:53:25.526Z,9.60
2018-01-10T19:55:54.585Z,9.60
2018-01-10T19:58:22.816Z,9.60
2018-01-10T20:00:51.067Z,9.50
2018-01-10T20:03:19.301Z,9.60
2018-01-10T20:05:47.577Z,9.50
2018-01-10T20:08:16.660Z,9.50
2018-01-10T20:10:44.901Z,9.40
2018-01-10T20:13:13.934Z,9.40
2018-01-10T20:15:42.166Z,9.40
2018-01-10T20:18:11.192Z,9.30
2018-01-10T20:20:39.476Z,9.30
2018-01-10T20:23:07.736Z,9.30
2018-01-10T20:25:35.959Z,9.20
2018-01-10T20:28:04.224Z,9.30
2018-01-10T20:30:32.468Z,9.10
2018-01-10T20:33:00.721Z,9.00
2018-01-10T20:35:29.711Z,9.00
2018-01-10T20:37:58.745Z,9.00
2018-01-10T20:40:26.993Z,8.90
2018-01-10T20:42:56.022Z,8.90
2018-01-10T20:45:24.260Z,8.80
2018-01-10T20:47:53.277Z,8.90
2018-01-10T20:50:21.520Z,8.90
2018-01-10T20:52:50.531Z,8.90
2018-01-10T20:55:18.777Z,8.90
2018-01-10T20:57:47.032Z,8.90
2018-01-10T21:00:16.000Z,8.80
2018-01-10T21:02:44.323Z,8.80
2018-01-10T21:05:12.544Z,8.80
2018-01-10T21:07:41.580Z,8.60
2018-01-10T21:10:09.908Z,8.60
2018-01-10T21:12:38.138Z,8.70
2018-01-10T21:15:06.403Z,8.80
2018-01-10T21:17:35.393Z,8.70
2018-01-10T21:20:03.646Z,8.70
2018-01-10T21:22:31.876Z,8.70
2018-01-10T21:25:00.920Z,8.60
2018-01-10T21:27:29.168Z,8.60
2018-01-10T21:29:57.432Z,8.60
2018-01-10T21:32:26.535Z,8.60
2018-01-10T21:34:54.809Z,8.60
2018-01-10T21:37:23.805Z,8.50
2018-01-10T21:39:52.063Z,8.50
2018-01-10T21:42:21.157Z,8.40
2018-01-10T21:44:49.409Z,8.40
2018-01-10T21:47:17.635Z,8.40
2018-01-10T21:49:45.984Z,8.40
2018-01-10T21:52:14.210Z,8.40
2018-01-10T21:54:42.471Z,8.40
2018-01-10T21:57:10.717Z,8.50
2018-01-10T21:59:39.733Z,8.40
2018-01-10T22:02:07.964Z,8.40
2018-01-10T22:04:36.853Z,8.40
2018-01-10T22:07:05.095Z,8.40
2018-01-10T22:09:33.348Z,8.40
2018-01-10T22:12:01.611Z,8.40
2018-01-10T22:14:30.635Z,8.40
2018-01-10T22:16:58.961Z,8.40
2018-01-10T22:19:27.246Z,8.30
2018-01-10T22:21:55.489Z,8.40
2018-01-10T22:24:23.720Z,8.30
2018-01-10T22:26:52.749Z,8.20
2018-01-10T22:29:20.991Z,8.20
2018-01-10T22:31:50.006Z,8.30
2018-01-10T22:34:18.238Z,8.20
2018-01-10T22:36:46.493Z,8.20
2018-01-10T22:39:14.734Z,8.10
2018-01-10T22:41:42.981Z,8.10
2018-01-10T22:44:11.976Z,8.20
2018-01-10T22:46:41.164Z,8.20
2018-01-10T22:49:10.167Z,8.10
2018-01-10T22:51:39.251Z,8.10
2018-01-10T22:54:07.477Z,8.10
2018-01-10T22:56:35.749Z,8.10
2018-01-10T22:59:04.008Z,8.10
2018-01-10T23:01:32.262Z,8.00
2018-01-10T23:04:01.365Z,8.10
2018-01-10T23:06:30.390Z,8.10
2018-01-10T23:08:58.624Z,8.10
2018-01-10T23:11:27.631Z,8.20
2018-01-10T23:13:55.867Z,8.20
2018-01-10T23:16:24.122Z,8.20
2018-01-10T23:18:52.361Z,8.20
2018-01-10T23:21:21.396Z,8.10
2018-01-10T23:23:49.659Z,8.10
2018-01-10T23:26:17.901Z,8.10
2018-01-10T23:28:46.941Z,8.20
2018-01-10T23:31:15.197Z,8.20
2018-01-10T23:33:43.443Z,8.20
2018-01-10T23:36:12.454Z,8.20
2018-01-10T23:38:40.741Z,8.20
2018-01-10T23:41:08.980Z,8.10
2018-01-10T23:43:38.001Z,8.10
2018-01-10T23:46:06.251Z,8.10
2018-01-10T23:48:34.551Z,8.10
2018-01-10T23:51:02.792Z,8.20
2018-01-10T23:53:31.073Z,8.30
2018-01-10T23:55:59.313Z,8.30
2018-01-10T23:58:27.564Z,8.30
